Time;durP1;ratioP1;P1;durP2;ratioP2;P2;SDS_P1;SDS_P2;PMS_P1;PMS_P2;Temp;Humidity;BMP_temperature;BMP_pressure;BME280_temperature;BME280_humidity;BME280_pressure;Samples;Min_cycle;Max_cycle;Signal;HPM_P1;HPM_P2
2021/10/07 00:01:44;;;;;;;3.22;1.20;;;;;;;18.28;61.54;102369.50;5048339;28;20037;-64
2021/10/07 00:04:10;;;;;;;7.22;1.65;;;;;;;18.25;61.52;102367.88;5058048;28;20048;-64
2021/10/07 00:06:35;;;;;;;6.75;1.52;;;;;;;18.22;61.60;102370.66;5051557;28;20041;-64
2021/10/07 00:09:04;;;;;;;2.40;0.90;;;;;;;18.25;61.36;102372.31;5048904;28;20286;-64
2021/10/07 00:11:29;;;;;;;0.88;0.70;;;;;;;18.20;61.39;102376.03;5057381;28;20079;-64
2021/10/07 00:13:55;;;;;;;4.88;1.08;;;;;;;18.19;61.42;102374.34;5044033;28;20092;-64
2021/10/07 00:16:20;;;;;;;6.30;1.42;;;;;;;18.20;61.50;102376.03;5052465;28;20050;-64
2021/10/07 00:18:48;;;;;;;2.35;1.02;;;;;;;18.21;61.37;102375.13;5041925;28;20194;-64
2021/10/07 00:21:17;;;;;;;3.45;1.27;;;;;;;18.21;61.51;102384.88;5044214;28;20041;-64
2021/10/07 00:23:54;;;;;;;6.78;1.15;;;;;;;18.18;61.60;102391.16;5054376;28;20086;-64
2021/10/07 00:26:20;;;;;;;1.92;0.90;;;;;;;18.20;61.32;102399.91;5057477;28;20033;-64
2021/10/07 00:28:45;;;;;;;2.72;1.00;;;;;;;18.21;61.39;102390.19;5050669;28;20051;-64
2021/10/07 00:31:17;;;;;;;3.05;0.95;;;;;;;18.21;61.39;102393.69;5051120;28;20041;-64
2021/10/07 00:36:41;;;;;;;1.15;0.80;;;;;;;18.12;61.52;102401.19;5043196;28;20088;-64
2021/10/07 00:39:06;;;;;;;2.40;1.10;;;;;;;18.05;61.68;102399.78;5047314;28;20087;-64
2021/10/07 00:41:33;;;;;;;2.05;0.90;;;;;;;18.17;61.59;102404.50;5045976;28;20029;-64
2021/10/07 00:44:03;;;;;;;3.15;0.90;;;;;;;18.17;61.36;102397.41;5041700;28;20265;-64
2021/10/07 00:46:28;;;;;;;0.95;0.70;;;;;;;18.15;61.54;102404.56;5060549;28;20074;-64
2021/10/07 00:48:53;;;;;;;2.30;0.60;;;;;;;18.08;61.61;102403.16;5061232;28;20036;-64
2021/10/07 00:51:19;;;;;;;1.05;0.60;;;;;;;18.17;61.38;102404.50;5060839;28;20016;-64
2021/10/07 00:53:44;;;;;;;2.80;0.88;;;;;;;18.13;61.53;102405.56;5061369;28;20040;-64
2021/10/07 00:56:10;;;;;;;1.63;0.73;;;;;;;18.11;61.67;102400.34;5059966;28;20024;-64
2021/10/07 00:58:35;;;;;;;2.35;0.75;;;;;;;18.05;61.26;102402.44;5059530;28;20052;-64
2021/10/07 01:04:22;;;;;;;3.72;1.30;;;;;;;18.03;61.62;102410.47;5025425;28;20390;-64
2021/10/07 01:06:48;;;;;;;4.60;1.02;;;;;;;18.06;61.58;102412.94;5092320;28;20103;-64
2021/10/07 01:09:13;;;;;;;4.85;1.45;;;;;;;18.03;61.71;102424.56;5062566;28;20208;-64
2021/10/07 01:11:39;;;;;;;7.18;1.15;;;;;;;18.01;61.58;102428.25;5045685;28;20361;-64
2021/10/07 01:14:04;;;;;;;4.57;1.35;;;;;;;17.99;61.58;102424.78;5078690;28;20040;-64
2021/10/07 01:16:29;;;;;;;4.85;1.17;;;;;;;17.96;61.66;102431.09;5088305;28;20232;-64
2021/10/07 01:18:55;;;;;;;6.38;1.65;;;;;;;18.00;61.72;102426.50;5091561;28;20043;-65
2021/10/07 01:21:21;;;;;;;4.40;1.10;;;;;;;17.97;61.77;102429.28;5067782;28;20505;-64
2021/10/07 01:23:47;;;;;;;4.22;1.65;;;;;;;17.92;61.61;102428.63;5082722;28;20050;-64
2021/10/07 01:26:14;;;;;;;3.45;1.00;;;;;;;17.93;61.49;102428.56;5072823;28;20265;-64
2021/10/07 01:28:40;;;;;;;5.90;1.67;;;;;;;17.99;61.36;102427.41;5086514;28;20048;-64
2021/10/07 01:31:06;;;;;;;3.45;0.90;;;;;;;17.96;61.61;102430.25;5048761;28;20056;-64
2021/10/07 01:33:31;;;;;;;7.30;1.40;;;;;;;17.97;61.54;102435.47;5066633;28;20044;-64
2021/10/07 01:35:57;;;;;;;5.75;1.20;;;;;;;17.97;61.37;102434.59;5069204;28;20032;-64
2021/10/07 01:38:22;;;;;;;6.30;1.42;;;;;;;17.88;61.85;102442.97;5086311;28;20115;-64
2021/10/07 01:40:48;;;;;;;4.67;1.33;;;;;;;17.83;61.84;102436.06;5093171;28;20254;-64
2021/10/07 01:43:13;;;;;;;4.72;0.95;;;;;;;17.83;61.84;102443.16;5092384;28;20263;-64
2021/10/07 01:45:39;;;;;;;6.10;1.45;;;;;;;17.90;61.64;102447.28;5068538;28;20147;-64
2021/10/07 01:48:05;;;;;;;5.43;1.38;;;;;;;17.91;61.57;102448.13;5090352;28;20035;-64
2021/10/07 01:50:30;;;;;;;7.50;1.33;;;;;;;17.84;61.80;102448.41;5079044;28;20064;-64
2021/10/07 01:52:56;;;;;;;4.60;1.25;;;;;;;17.92;61.37;102444.53;5070548;28;20187;-64
2021/10/07 01:55:21;;;;;;;6.20;1.88;;;;;;;17.91;61.23;102451.66;5080643;28;20047;-64
2021/10/07 01:57:46;;;;;;;16.35;1.48;;;;;;;17.87;61.59;102459.81;5087419;28;20030;-64
2021/10/07 02:00:12;;;;;;;3.95;1.20;;;;;;;17.89;61.46;102456.16;5081631;28;20023;-64
2021/10/07 02:02:38;;;;;;;3.30;1.02;;;;;;;17.91;61.30;102461.38;5069309;28;20718;-64
2021/10/07 02:05:04;;;;;;;3.20;0.90;;;;;;;17.85;61.51;102467.84;5077661;28;20031;-64
2021/10/07 02:07:29;;;;;;;4.28;1.10;;;;;;;17.83;61.50;102464.38;5079306;28;20067;-64
2021/10/07 02:09:55;;;;;;;3.90;1.00;;;;;;;17.83;61.65;102464.38;5072384;28;20020;-64
2021/10/07 02:12:20;;;;;;;4.35;1.10;;;;;;;17.81;61.49;102464.44;5066989;28;20035;-64
2021/10/07 02:14:45;;;;;;;2.08;0.90;;;;;;;17.84;61.68;102469.59;5091944;28;20129;-64
2021/10/07 02:17:11;;;;;;;2.72;1.00;;;;;;;17.83;61.66;102473.16;5099295;28;20230;-64
2021/10/07 02:19:36;;;;;;;5.20;1.27;;;;;;;17.78;61.60;102475.16;5080867;28;20047;-64
2021/10/07 02:22:03;;;;;;;3.45;1.17;;;;;;;17.84;61.61;102472.25;5079446;28;20028;-64
2021/10/07 02:24:29;;;;;;;3.38;1.05;;;;;;;17.80;61.57;102486.53;5078887;28;20055;-64
2021/10/07 02:26:54;;;;;;;3.00;1.05;;;;;;;17.83;61.46;102474.97;5079338;28;20036;-64
2021/10/07 02:29:19;;;;;;;4.40;1.67;;;;;;;17.82;61.28;102482.03;5076956;28;20036;-61
2021/10/07 02:31:45;;;;;;;3.65;1.25;;;;;;;17.80;61.26;102483.91;5072565;28;20053;-61
2021/10/07 02:34:10;;;;;;;4.20;1.35;;;;;;;17.78;61.58;102491.06;5072200;28;20100;-61
2021/10/07 02:36:35;;;;;;;3.58;1.00;;;;;;;17.70;61.71;102482.59;5077635;28;20077;-61
2021/10/07 02:39:01;;;;;;;2.90;1.00;;;;;;;17.69;61.72;102488.81;5087101;28;20037;-61
2021/10/07 02:41:26;;;;;;;2.40;1.00;;;;;;;17.75;61.57;102490.34;5090067;28;20036;-61
2021/10/07 02:43:52;;;;;;;3.35;1.17;;;;;;;17.80;61.25;102483.91;5092834;28;20039;-61
2021/10/07 02:46:17;;;;;;;4.32;0.73;;;;;;;17.73;61.52;102477.16;5067529;28;20041;-61
2021/10/07 02:48:44;;;;;;;2.28;0.93;;;;;;;17.79;61.07;102479.53;5090020;28;20038;-61
2021/10/07 02:51:10;;;;;;;4.53;1.33;;;;;;;17.75;61.56;102485.88;5085674;28;20073;-61
2021/10/07 02:53:35;;;;;;;5.15;1.33;;;;;;;17.76;61.33;102486.78;5080492;28;20261;-60
2021/10/07 02:56:01;;;;;;;6.70;1.42;;;;;;;17.76;61.33;102489.41;5096174;28;20012;-61
2021/10/07 02:58:26;;;;;;;5.40;1.38;;;;;;;17.65;61.35;102487.25;5080508;28;20118;-61
2021/10/07 03:00:52;;;;;;;4.90;1.65;;;;;;;17.76;61.26;102492.91;5077751;28;20359;-61
2021/10/07 03:03:17;;;;;;;5.43;1.63;;;;;;;17.80;61.15;102497.16;5088449;28;20033;-61
2021/10/07 03:05:42;;;;;;;4.38;1.40;;;;;;;17.75;61.21;102498.28;5097100;28;20032;-61
2021/10/07 03:08:08;;;;;;;4.90;1.20;;;;;;;17.71;61.39;102491.41;5081546;28;20040;-61
2021/10/07 03:10:33;;;;;;;5.72;1.40;;;;;;;17.70;61.41;102490.56;5077956;28;20304;-61
2021/10/07 03:12:58;;;;;;;5.93;1.33;;;;;;;17.64;61.53;102490.81;5076886;28;20108;-61
2021/10/07 03:15:24;;;;;;;4.18;1.48;;;;;;;17.69;61.50;102496.78;5082551;28;20044;-61
2021/10/07 03:17:49;;;;;;;3.17;1.17;;;;;;;17.73;61.09;102505.44;5076349;28;20100;-61
2021/10/07 03:20:15;;;;;;;2.28;1.20;;;;;;;17.71;61.14;102500.22;5054813;28;20116;-61
2021/10/07 03:22:41;;;;;;;5.35;1.20;;;;;;;17.71;61.04;102499.34;5090471;28;20028;-61
2021/10/07 03:25:06;;;;;;;6.30;1.90;;;;;;;17.61;61.53;102501.56;5076161;28;20211;-61
2021/10/07 03:27:32;;;;;;;4.60;1.25;;;;;;;17.67;61.30;102505.72;5087672;28;20075;-61
2021/10/07 03:29:57;;;;;;;4.70;1.17;;;;;;;17.67;61.29;102503.09;5065139;28;20037;-61
2021/10/07 03:32:22;;;;;;;4.53;1.50;;;;;;;17.65;61.13;102508.44;5089978;28;20334;-61
2021/10/07 03:34:48;;;;;;;4.20;1.00;;;;;;;17.57;61.51;102505.25;5084525;28;20055;-61
2021/10/07 03:37:13;;;;;;;2.28;0.75;;;;;;;17.62;61.43;102520.00;5094150;28;20041;-61
2021/10/07 03:39:39;;;;;;;5.25;1.58;;;;;;;17.66;60.96;102520.75;5089704;28;20051;-61
2021/10/07 03:42:04;;;;;;;4.50;1.00;;;;;;;17.68;61.20;102513.59;5081130;28;20037;-61
2021/10/07 03:44:30;;;;;;;5.28;1.27;;;;;;;17.68;61.14;102518.88;5102348;28;20047;-61
2021/10/07 03:46:56;;;;;;;4.75;0.90;;;;;;;17.64;60.96;102522.59;5084395;28;20032;-61
2021/10/07 03:49:21;;;;;;;4.15;1.20;;;;;;;17.63;61.07;102523.56;5076594;28;20524;-62
2021/10/07 03:51:47;;;;;;;1.48;0.90;;;;;;;17.62;61.02;102527.13;5078358;28;20043;-61
2021/10/07 03:54:12;;;;;;;3.13;1.08;;;;;;;17.56;61.46;102530.03;5102657;28;20036;-61
2021/10/07 03:56:39;;;;;;;1.40;0.70;;;;;;;17.65;61.27;102527.00;5087823;28;20040;-61
2021/10/07 03:59:05;;;;;;;4.25;1.17;;;;;;;17.67;60.91;102534.88;5082081;28;20043;-61
2021/10/07 04:01:30;;;;;;;6.28;1.10;;;;;;;17.63;61.07;102537.66;5081425;28;20278;-61
2021/10/07 04:03:56;;;;;;;2.60;1.52;;;;;;;17.62;61.27;102530.63;5082031;28;20106;-61
2021/10/07 04:06:21;;;;;;;3.60;1.08;;;;;;;17.57;61.08;102535.28;5081410;28;20036;-61
2021/10/07 04:08:46;;;;;;;3.47;1.13;;;;;;;17.60;61.34;102550.16;5077040;28;20325;-62
2021/10/07 04:11:12;;;;;;;3.10;1.02;;;;;;;17.56;61.32;102545.94;5087542;28;20040;-61
2021/10/07 04:13:37;;;;;;;5.05;0.90;;;;;;;17.58;61.11;102542.28;5076355;28;20329;-61
2021/10/07 04:16:03;;;;;;;4.18;1.30;;;;;;;17.62;61.20;102548.31;5085464;28;20024;-61
2021/10/07 04:18:28;;;;;;;2.97;1.27;;;;;;;17.58;61.40;102552.03;5084267;28;20116;-61
2021/10/07 04:20:54;;;;;;;4.05;1.02;;;;;;;17.51;61.24;102556.72;5097971;28;20030;-61
2021/10/07 04:23:19;;;;;;;8.57;1.30;;;;;;;17.51;61.38;102550.56;5092988;28;20029;-61
2021/10/07 04:25:45;;;;;;;6.85;1.75;;;;;;;17.51;61.50;102548.75;5089642;28;20032;-61
2021/10/07 04:28:10;;;;;;;8.00;1.52;;;;;;;17.59;60.91;102554.63;5080510;28;20025;-61
2021/10/07 04:30:36;;;;;;;7.93;1.58;;;;;;;17.53;61.25;102556.66;5090135;28;20299;-61
2021/10/07 04:33:06;;;;;;;5.90;1.25;;;;;;;17.51;61.55;102553.22;5089948;28;20070;-62
2021/10/07 04:35:31;;;;;;;5.20;1.48;;;;;;;17.49;61.36;102557.72;5076505;28;20048;-61
2021/10/07 04:37:56;;;;;;;3.20;1.23;;;;;;;17.46;61.56;102558.69;5065032;28;20029;-61
2021/10/07 04:40:22;;;;;;;3.17;1.40;;;;;;;17.43;61.57;102561.50;5091775;28;20051;-61
2021/10/07 04:42:48;;;;;;;4.05;1.15;;;;;;;17.52;61.13;102565.50;5079889;28;20032;-62
2021/10/07 04:45:13;;;;;;;3.42;1.30;;;;;;;17.49;61.04;102560.38;5090563;28;20032;-61
2021/10/07 04:47:39;;;;;;;7.10;1.63;;;;;;;17.43;61.32;102564.13;5075853;28;20043;-61
2021/10/07 04:50:05;;;;;;;9.00;1.73;;;;;;;17.46;61.33;102561.34;5089708;28;20299;-60
2021/10/07 04:52:31;;;;;;;5.53;1.85;;;;;;;17.44;61.19;102566.72;5090002;28;20068;-61
2021/10/07 04:54:56;;;;;;;8.05;1.77;;;;;;;17.48;61.17;102562.13;5090970;28;20036;-61
2021/10/07 04:57:21;;;;;;;5.47;1.50;;;;;;;17.56;61.04;102564.47;5074280;28;20036;-61
2021/10/07 04:59:47;;;;;;;3.50;1.25;;;;;;;17.52;60.83;102565.50;5086731;28;20258;-61
2021/10/07 05:02:12;;;;;;;3.90;1.10;;;;;;;17.42;61.12;102571.19;5092901;28;20040;-61
2021/10/07 05:04:38;;;;;;;2.85;1.23;;;;;;;17.43;61.26;102569.44;5067036;28;20346;-61
2021/10/07 05:07:03;;;;;;;6.68;1.90;;;;;;;17.47;61.39;102571.03;5095558;28;20268;-61
2021/10/07 05:09:29;;;;;;;8.65;2.30;;;;;;;17.46;61.14;102580.75;5079894;28;20042;-61
2021/10/07 05:11:54;;;;;;;3.85;1.35;;;;;;;17.42;61.50;102571.19;5080407;28;20091;-62
2021/10/07 05:14:20;;;;;;;9.73;2.10;;;;;;;17.39;61.45;102581.06;5075689;28;20373;-61
2021/10/07 05:16:45;;;;;;;5.47;1.45;;;;;;;17.42;61.62;102580.94;5092546;28;20049;-61
2021/10/07 05:19:10;;;;;;;9.77;1.83;;;;;;;17.43;61.35;102587.97;5078010;28;20112;-61
2021/10/07 05:21:36;;;;;;;8.68;1.95;;;;;;;17.37;61.38;102581.16;5080275;28;20078;-61
2021/10/07 05:24:01;;;;;;;8.95;1.92;;;;;;;17.41;61.34;102595.13;5076263;28;20260;-61
2021/10/07 05:26:27;;;;;;;5.28;1.65;;;;;;;17.41;61.15;102597.78;5082588;28;20032;-61
2021/10/07 05:28:52;;;;;;;6.60;1.70;;;;;;;17.40;61.07;102596.03;5091984;28;20040;-61
2021/10/07 05:31:18;;;;;;;5.28;1.48;;;;;;;17.37;60.95;102599.69;5079743;28;20029;-61
2021/10/07 05:33:43;;;;;;;4.15;1.58;;;;;;;17.44;60.91;102601.16;5087076;28;20033;-61
2021/10/07 05:36:08;;;;;;;6.88;1.30;;;;;;;17.41;61.07;102603.94;5091656;28;20107;-61
2021/10/07 05:38:34;;;;;;;6.43;1.60;;;;;;;17.36;61.27;102607.69;5067854;28;20039;-61
2021/10/07 05:41:00;;;;;;;2.95;1.40;;;;;;;17.42;60.96;102610.94;5061062;28;20063;-61
2021/10/07 05:43:26;;;;;;;4.63;1.77;;;;;;;17.43;60.77;102609.16;5061061;28;20124;-61
2021/10/07 05:45:51;;;;;;;7.50;2.17;;;;;;;17.46;60.73;102614.31;5070305;28;20051;-62
2021/10/07 05:48:16;;;;;;;3.90;1.50;;;;;;;17.37;61.10;102606.75;5086610;28;20044;-61
2021/10/07 05:50:42;;;;;;;2.45;0.90;;;;;;;17.44;60.89;102613.50;5086768;28;20048;-61
2021/10/07 05:53:07;;;;;;;1.45;0.50;;;;;;;17.44;60.77;102608.22;5092687;28;20032;-61
2021/10/07 05:55:33;;;;;;;2.70;1.20;;;;;;;17.45;60.86;102615.25;5098348;28;20127;-61
2021/10/07 05:57:58;;;;;;;6.10;2.03;;;;;;;17.44;60.67;102611.75;5099267;28;20276;-61
2021/10/07 06:00:23;;;;;;;6.43;1.80;;;;;;;17.38;60.91;102612.00;5098056;28;20039;-62
2021/10/07 06:02:49;;;;;;;3.97;1.77;;;;;;;17.33;61.23;102616.59;5076313;28;20052;-61
2021/10/07 06:05:14;;;;;;;1.98;0.90;;;;;;;17.44;60.80;102616.16;5075252;28;20339;-61
2021/10/07 06:07:40;;;;;;;2.00;0.98;;;;;;;17.46;60.79;102615.19;5096368;28;20101;-61
2021/10/07 06:10:06;;;;;;;1.30;0.80;;;;;;;17.48;60.76;102625.69;5086384;28;20027;-60
2021/10/07 06:12:32;;;;;;;3.78;0.90;;;;;;;17.45;61.13;102631.16;5086958;28;20032;-63
2021/10/07 06:14:58;;;;;;;2.83;1.30;;;;;;;17.63;63.09;102633.03;5079437;28;20362;-72
2021/10/07 06:17:24;;;;;;;5.35;1.90;;;;;;;15.28;71.99;102634.56;5062512;28;20367;-59
2021/10/07 06:19:54;;;;;;;7.65;2.80;;;;;;;15.23;73.28;102636.47;5060831;28;20028;-60
2021/10/07 06:22:19;;;;;;;10.30;2.47;;;;;;;14.83;75.55;102635.06;5077180;28;20135;-60
2021/10/07 06:24:45;;;;;;;11.07;2.78;;;;;;;14.58;76.60;102634.94;5075960;28;20052;-57
2021/10/07 06:27:10;;;;;;;14.80;2.60;;;;;;;16.09;71.25;102635.41;5073659;28;20363;-59
2021/10/07 06:29:36;;;;;;;12.50;2.55;;;;;;;14.80;75.83;102637.78;5071265;28;20028;-60
2021/10/07 06:32:01;;;;;;;8.23;2.20;;;;;;;15.24;74.31;102645.25;5074338;28;20234;-59
2021/10/07 06:34:26;;;;;;;14.02;2.78;;;;;;;15.10;74.85;102650.97;5076206;28;20413;-60
2021/10/07 06:36:52;;;;;;;9.10;2.75;;;;;;;14.27;78.67;102650.72;5078410;28;20094;-60
2021/10/07 06:39:17;;;;;;;13.40;2.53;;;;;;;15.49;74.05;102648.84;5074913;28;20044;-60
2021/10/07 06:41:44;;;;;;;11.73;3.28;;;;;;;16.26;72.87;102654.19;5077833;28;20050;-60
2021/10/07 06:44:10;;;;;;;17.55;3.67;;;;;;;16.95;69.40;102656.06;5068488;28;20032;-60
2021/10/07 06:46:35;;;;;;;9.80;3.65;;;;;;;16.46;70.65;102658.75;5070138;28;20091;-59
2021/10/07 06:49:01;;;;;;;11.80;2.83;;;;;;;16.68;71.40;102664.09;5067586;28;20232;-60
2021/10/07 06:51:27;;;;;;;8.70;2.50;;;;;;;16.01;70.90;102669.16;5071375;28;20036;-60
2021/10/07 06:53:54;;;;;;;8.20;2.83;;;;;;;16.10;72.46;102667.06;5065276;28;20311;-60
2021/10/07 06:56:20;;;;;;;10.45;2.60;;;;;;;15.80;73.67;102681.34;5067376;28;20040;-61
2021/10/07 06:58:47;;;;;;;7.53;2.67;;;;;;;15.62;73.15;102682.78;5078673;28;20036;-62
2021/10/07 07:01:13;;;;;;;6.07;2.47;;;;;;;16.54;72.37;102686.72;5072370;28;20395;-62
2021/10/07 07:03:38;;;;;;;5.05;1.70;;;;;;;17.18;69.52;102680.78;5075890;28;20283;-60
2021/10/07 07:06:04;;;;;;;9.77;2.53;;;;;;;17.69;68.96;102681.38;5076165;28;20040;-67
2021/10/07 07:08:29;;;;;;;9.32;4.72;;;;;;;18.21;67.15;102682.72;5076758;28;20118;-60
2021/10/07 07:10:54;;;;;;;12.38;3.35;;;;;;;18.66;65.25;102685.16;5078114;28;20067;-61
2021/10/07 07:13:20;;;;;;;13.35;2.85;;;;;;;19.51;62.27;102690.88;5075421;28;20331;-61
2021/10/07 07:15:45;;;;;;;6.70;2.80;;;;;;;20.55;58.42;102696.28;5075363;28;20303;-60
2021/10/07 07:18:11;;;;;;;5.78;2.30;;;;;;;21.84;54.74;102686.41;5076172;28;20042;-60
2021/10/07 07:20:36;;;;;;;9.45;2.40;;;;;;;22.74;52.66;102690.72;5076245;28;20324;-60
2021/10/07 07:23:01;;;;;;;11.95;2.50;;;;;;;23.62;50.64;102695.75;5072707;28;20343;-60
2021/10/07 07:25:27;;;;;;;10.45;2.67;;;;;;;24.41;48.38;102693.06;5073280;28;20054;-60
2021/10/07 07:27:52;;;;;;;10.80;3.13;;;;;;;23.97;49.10;102705.03;5074862;28;20032;-59
2021/10/07 07:30:18;;;;;;;15.55;3.00;;;;;;;23.21;51.49;102706.47;5075860;28;20041;-60
2021/10/07 07:32:43;;;;;;;10.18;3.00;;;;;;;24.68;48.40;102706.34;5075790;28;20367;-62
2021/10/07 07:35:09;;;;;;;17.08;3.00;;;;;;;25.65;45.78;102705.50;5074473;28;20063;-60
2021/10/07 07:37:34;;;;;;;9.68;3.25;;;;;;;25.76;44.77;102712.75;5075378;28;20266;-60
2021/10/07 07:39:59;;;;;;;16.80;2.88;;;;;;;25.52;46.17;102712.75;5076605;28;20057;-60
2021/10/07 07:42:25;;;;;;;14.45;3.50;;;;;;;25.84;44.92;102714.81;5077274;28;20051;-59
2021/10/07 07:44:50;;;;;;;10.48;3.00;;;;;;;25.85;45.13;102725.44;5075216;28;20037;-61
2021/10/07 07:47:16;;;;;;;11.30;3.25;;;;;;;26.53;43.09;102725.59;5076729;28;20040;-59
2021/10/07 07:49:41;;;;;;;16.60;3.38;;;;;;;26.47;43.12;102725.22;5076329;28;20028;-60
2021/10/07 07:52:07;;;;;;;16.05;3.03;;;;;;;26.72;43.24;102734.91;5072365;28;20048;-62
2021/10/07 07:54:32;;;;;;;8.23;2.47;;;;;;;26.70;43.02;102735.03;5066157;28;20036;-61
2021/10/07 07:56:58;;;;;;;18.35;3.28;;;;;;;25.68;44.94;102739.28;5063662;28;20075;-61
2021/10/07 07:59:23;;;;;;;8.93;2.38;;;;;;;22.22;55.97;102740.13;5066379;28;20399;-63
2021/10/07 08:01:48;;;;;;;9.82;2.45;;;;;;;21.53;59.03;102746.00;5068607;28;20047;-65
2021/10/07 08:04:14;;;;;;;7.90;2.35;;;;;;;21.14;60.22;102750.78;5074503;28;20389;-63
2021/10/07 08:06:39;;;;;;;9.88;2.90;;;;;;;21.26;61.01;102747.41;5073498;28;20047;-64
2021/10/07 08:09:05;;;;;;;8.73;2.20;;;;;;;21.00;61.39;102750.69;5074881;28;20297;-65
2021/10/07 08:11:31;;;;;;;7.82;2.13;;;;;;;20.98;62.86;102749.91;5062015;28;20087;-65
2021/10/07 08:13:58;;;;;;;9.05;2.60;;;;;;;20.74;62.77;102752.94;5073125;28;20040;-65
2021/10/07 08:16:29;;;;;;;10.53;3.03;;;;;;;20.69;61.67;102749.66;5076842;28;20090;-64
2021/10/07 08:18:54;;;;;;;7.22;2.10;;;;;;;20.52;63.60;102748.72;5079916;28;20304;-64
2021/10/07 08:21:19;;;;;;;10.73;2.67;;;;;;;20.24;63.17;102751.09;5075518;28;20049;-65
2021/10/07 08:23:47;;;;;;;12.00;2.55;;;;;;;20.14;63.42;102748.06;5079141;28;20098;-64
2021/10/07 08:26:12;;;;;;;9.40;1.85;;;;;;;20.05;64.83;102751.19;5075642;28;20107;-63
2021/10/07 08:28:38;;;;;;;9.13;2.30;;;;;;;20.12;62.66;102756.13;5078172;28;20046;-64
2021/10/07 08:31:03;;;;;;;11.45;2.33;;;;;;;20.05;64.22;102765.34;5084550;28;20039;-64
2021/10/07 08:33:29;;;;;;;4.65;1.85;;;;;;;19.63;66.17;102757.63;5076157;28;20491;-63
2021/10/07 08:35:55;;;;;;;19.60;3.17;;;;;;;21.21;59.14;102765.47;5082773;28;20113;-67
2021/10/07 08:38:20;;;;;;;42.25;3.55;;;;;;;21.80;57.37;102771.06;5077262;28;20028;-66
2021/10/07 08:40:45;;;;;;;42.15;3.97;;;;;;;22.10;56.70;102772.00;5078279;28;20063;-67
2021/10/07 08:43:11;;;;;;;24.50;3.40;;;;;;;22.23;55.99;102765.88;5073179;28;20248;-67
2021/10/07 08:45:36;;;;;;;35.92;4.00;;;;;;;22.30;55.92;102769.03;5076349;28;20138;-67
2021/10/07 08:48:02;;;;;;;35.55;4.28;;;;;;;22.32;55.58;102772.50;5080973;28;20047;-68
2021/10/07 08:50:27;;;;;;;26.10;3.63;;;;;;;22.39;56.02;102773.84;5080573;28;20036;-66
2021/10/07 08:52:53;;;;;;;18.33;2.85;;;;;;;22.36;56.03;102779.38;5079778;28;20331;-65
2021/10/07 08:55:18;;;;;;;25.30;3.15;;;;;;;22.37;55.96;102775.72;5081102;28;20044;-65
2021/10/07 08:57:44;;;;;;;18.33;3.28;;;;;;;22.35;56.49;102776.78;5108185;28;20219;-66
2021/10/07 09:00:14;;;;;;;25.55;3.33;;;;;;;22.39;55.89;102780.97;5082910;28;20039;-66
2021/10/07 09:02:39;;;;;;;14.88;3.35;;;;;;;22.44;55.91;102786.91;5080000;28;20040;-67
2021/10/07 09:05:10;;;;;;;30.45;3.95;;;;;;;22.43;56.27;102779.88;5080405;28;20402;-67
2021/10/07 09:08:05;;;;;;;24.20;3.03;;;;;;;22.51;55.82;102774.06;5072369;28;20099;-67
2021/10/07 09:10:37;;;;;;;21.95;2.92;;;;;;;22.59;55.77;102779.78;5072724;28;20048;-66
2021/10/07 09:13:14;;;;;;;29.15;2.90;;;;;;;22.63;55.70;102775.97;5077065;28;20028;-67
2021/10/07 09:15:41;;;;;;;12.45;2.95;;;;;;;22.64;55.79;102785.69;5081980;28;20052;-67
2021/10/07 09:18:06;;;;;;;13.70;3.05;;;;;;;22.61;56.03;102786.75;5079109;28;20040;-67
2021/10/07 09:20:36;;;;;;;22.83;3.05;;;;;;;22.59;56.04;102783.31;5076465;28;20047;-67
2021/10/07 09:23:18;;;;;;;31.35;3.83;;;;;;;22.62;56.27;102780.44;5078536;28;20024;-65
2021/10/07 09:26:02;;;;;;;26.13;3.67;;;;;;;22.59;56.45;102779.78;5078598;28;20044;-67
2021/10/07 09:28:30;;;;;;;23.35;3.25;;;;;;;22.61;56.58;102785.88;5081133;28;20320;-66
2021/10/07 09:30:57;;;;;;;17.87;3.00;;;;;;;22.62;56.61;102779.59;5075979;28;20051;-68
2021/10/07 09:33:40;;;;;;;32.40;3.80;;;;;;;22.58;56.74;102783.41;5080760;28;20020;-68
2021/10/07 09:36:20;;;;;;;23.65;3.38;;;;;;;22.55;56.86;102784.44;5076957;28;20048;-66
2021/10/07 09:38:47;;;;;;;37.38;2.83;;;;;;;22.57;57.00;102779.88;5076395;28;20032;-66
2021/10/07 09:41:15;;;;;;;16.17;2.80;;;;;;;22.61;56.73;102777.88;5079409;28;20240;-66
2021/10/07 09:43:42;;;;;;;13.98;2.72;;;;;;;22.73;56.33;102778.94;5078751;28;20379;-67
2021/10/07 09:46:08;;;;;;;18.98;2.88;;;;;;;22.73;56.66;102789.63;5074271;28;20077;-67
2021/10/07 09:48:40;;;;;;;22.73;3.35;;;;;;;22.70;56.80;102780.00;5078630;28;20044;-66
2021/10/07 09:51:13;;;;;;;16.08;3.17;;;;;;;22.81;56.43;102784.66;5077005;28;20316;-67
2021/10/07 09:53:42;;;;;;;24.73;3.63;;;;;;;22.90;56.30;102785.91;5081240;28;20044;-67
2021/10/07 09:56:07;;;;;;;14.07;2.90;;;;;;;23.01;55.85;102791.41;5074730;28;20036;-67
2021/10/07 09:58:43;;;;;;;16.33;3.33;;;;;;;22.97;56.21;102788.06;5079304;28;20081;-66
2021/10/07 10:01:09;;;;;;;14.93;2.97;;;;;;;23.02;56.03;102785.13;5094291;28;20029;-67
2021/10/07 10:03:34;;;;;;;17.92;2.88;;;;;;;23.23;55.45;102784.75;5081245;28;20092;-67
2021/10/07 10:06:00;;;;;;;22.08;2.78;;;;;;;23.27;55.40;102789.81;5090792;28;20245;-68
2021/10/07 10:08:26;;;;;;;17.35;3.15;;;;;;;23.45;54.95;102793.13;5086670;28;20034;-67
2021/10/07 10:10:53;;;;;;;14.20;2.97;;;;;;;23.84;53.83;102794.16;5084326;28;20331;-65
2021/10/07 10:13:18;;;;;;;17.35;2.97;;;;;;;24.63;51.46;102788.84;5082479;28;20093;-68
2021/10/07 10:15:44;;;;;;;19.08;3.08;;;;;;;27.41;45.12;102785.81;5081963;28;20335;-68
2021/10/07 10:18:10;;;;;;;30.77;3.30;;;;;;;28.96;40.85;102781.66;5080992;28;20040;-67
2021/10/07 10:20:37;;;;;;;15.68;3.20;;;;;;;28.96;41.09;102784.34;5081277;28;20205;-68
2021/10/07 10:23:07;;;;;;;23.48;3.60;;;;;;;29.10;40.49;102789.38;5082017;28;20028;-66
2021/10/07 10:25:53;;;;;;;22.10;4.13;;;;;;;29.05;40.36;102783.53;5081793;28;20048;-67
2021/10/07 10:28:42;;;;;;;16.98;3.15;;;;;;;28.07;42.46;102793.78;5070602;28;20085;-66
2021/10/07 10:31:10;;;;;;;17.98;3.00;;;;;;;26.89;45.29;102787.34;5082439;28;20026;-67
2021/10/07 10:33:37;;;;;;;19.83;2.75;;;;;;;25.41;48.97;102790.47;5082434;28;20047;-67
2021/10/07 10:36:23;;;;;;;27.63;4.00;;;;;;;24.91;50.52;102787.78;5084269;28;20040;-66
2021/10/07 10:39:18;;;;;;;24.90;2.95;;;;;;;25.44;49.46;102791.09;5067409;28;20036;-65
2021/10/07 10:42:15;;;;;;;14.73;3.15;;;;;;;25.51;49.17;102783.47;5074836;28;20040;-66
2021/10/07 10:44:41;;;;;;;19.35;2.97;;;;;;;25.24;50.04;102792.56;5068042;28;20055;-66
2021/10/07 10:47:06;;;;;;;17.33;2.73;;;;;;;25.20;50.24;102790.19;5079165;28;20040;-66
2021/10/07 10:49:38;;;;;;;18.23;3.13;;;;;;;24.96;50.86;102782.94;5081368;28;20347;-67
2021/10/07 10:52:18;;;;;;;18.90;2.97;;;;;;;24.77;51.35;102787.91;5083537;28;20642;-67
2021/10/07 10:55:01;;;;;;;21.70;2.80;;;;;;;24.71;51.45;102798.06;5096659;28;20034;-67
2021/10/07 10:57:39;;;;;;;15.60;2.60;;;;;;;24.60;51.94;102792.63;5074557;28;20390;-67
2021/10/07 11:00:15;;;;;;;18.42;2.70;;;;;;;24.36;52.56;102796.94;5074017;28;20084;-66
2021/10/07 11:02:41;;;;;;;17.60;2.78;;;;;;;24.38;52.32;102800.41;5086832;28;20282;-67
2021/10/07 11:05:16;;;;;;;22.27;2.60;;;;;;;24.33;52.82;102804.22;5077978;28;20044;-66
2021/10/07 11:07:41;;;;;;;13.05;2.28;;;;;;;24.20;52.91;102800.69;5079388;28;20342;-67
2021/10/07 11:10:17;;;;;;;15.45;3.08;;;;;;;24.15;53.38;102800.13;5080875;28;20024;-67
2021/10/07 11:12:42;;;;;;;14.73;3.00;;;;;;;24.14;53.48;102801.97;5082168;28;20021;-67
2021/10/07 11:15:10;;;;;;;22.47;2.53;;;;;;;24.30;53.32;102808.94;5081291;28;20031;-67
2021/10/07 11:17:38;;;;;;;13.07;2.38;;;;;;;24.32;53.22;102807.00;5077440;28;20289;-67
2021/10/07 11:20:04;;;;;;;25.27;3.50;;;;;;;24.21;53.18;102799.69;5079611;28;20024;-67
2021/10/07 11:22:29;;;;;;;11.57;2.40;;;;;;;24.27;52.90;102804.66;5079636;28;20043;-67
2021/10/07 11:24:55;;;;;;;15.52;3.10;;;;;;;24.27;53.12;102807.34;5076778;28;20033;-66
2021/10/07 11:27:48;;;;;;;16.23;2.35;;;;;;;24.42;52.97;102807.25;5078936;28;20040;-67